sensor_id;sensor_type;location;lat;lon;timestamp;P1;durP1;ratioP1;P2;durP2;ratioP2
19205;SDS011;59358;52.134;5.596;2023-04-29T00:00:04;80.00;;;38.70;;
19205;SDS011;59358;52.134;5.596;2023-04-29T00:02:31;81.13;;;39.92;;
19205;SDS011;59358;52.134;5.596;2023-04-29T00:04:58;76.82;;;38.72;;
19205;SDS011;59358;52.134;5.596;2023-04-29T00:07:28;90.40;;;39.88;;
19205;SDS011;59358;52.134;5.596;2023-04-29T00:09:56;85.90;;;40.03;;
19205;SDS011;59358;52.134;5.596;2023-04-29T00:12:24;90.65;;;40.95;;
19205;SDS011;59358;52.134;5.596;2023-04-29T00:14:52;79.70;;;38.53;;
19205;SDS011;59358;52.134;5.596;2023-04-29T00:17:19;85.85;;;38.63;;
19205;SDS011;59358;52.134;5.596;2023-04-29T00:19:45;80.57;;;39.55;;
19205;SDS011;59358;52.134;5.596;2023-04-29T00:22:12;84.45;;;41.78;;
19205;SDS011;59358;52.134;5.596;2023-04-29T00:24:39;84.57;;;38.67;;
19205;SDS011;59358;52.134;5.596;2023-04-29T00:27:06;79.30;;;37.28;;
19205;SDS011;59358;52.134;5.596;2023-04-29T00:29:34;76.85;;;38.55;;
19205;SDS011;59358;52.134;5.596;2023-04-29T00:32:01;81.03;;;38.25;;
19205;SDS011;59358;52.134;5.596;2023-04-29T00:34:28;75.93;;;36.90;;
19205;SDS011;59358;52.134;5.596;2023-04-29T00:36:55;83.97;;;38.72;;
19205;SDS011;59358;52.134;5.596;2023-04-29T00:39:21;75.53;;;37.05;;
19205;SDS011;59358;52.134;5.596;2023-04-29T00:41:48;81.85;;;38.53;;
19205;SDS011;59358;52.134;5.596;2023-04-29T00:44:15;67.55;;;34.38;;
19205;SDS011;59358;52.134;5.596;2023-04-29T00:46:43;74.13;;;36.90;;
19205;SDS011;59358;52.134;5.596;2023-04-29T00:49:11;67.72;;;37.45;;
19205;SDS011;59358;52.134;5.596;2023-04-29T00:51:39;70.60;;;32.90;;
19205;SDS011;59358;52.134;5.596;2023-04-29T00:54:07;66.43;;;33.90;;
19205;SDS011;59358;52.134;5.596;2023-04-29T00:56:34;62.13;;;32.47;;
19205;SDS011;59358;52.134;5.596;2023-04-29T00:59:05;65.55;;;34.08;;
19205;SDS011;59358;52.134;5.596;2023-04-29T01:01:34;63.72;;;32.95;;
19205;SDS011;59358;52.134;5.596;2023-04-29T01:04:03;64.20;;;33.72;;
19205;SDS011;59358;52.134;5.596;2023-04-29T01:06:33;61.38;;;32.03;;
19205;SDS011;59358;52.134;5.596;2023-04-29T01:09:16;63.20;;;31.80;;
19205;SDS011;59358;52.134;5.596;2023-04-29T01:11:52;62.90;;;32.25;;
19205;SDS011;59358;52.134;5.596;2023-04-29T01:14:33;67.45;;;32.60;;
19205;SDS011;59358;52.134;5.596;2023-04-29T01:17:04;59.83;;;32.15;;
19205;SDS011;59358;52.134;5.596;2023-04-29T01:19:45;68.78;;;33.00;;
19205;SDS011;59358;52.134;5.596;2023-04-29T01:22:14;61.83;;;34.20;;
19205;SDS011;59358;52.134;5.596;2023-04-29T01:24:43;62.83;;;33.42;;
19205;SDS011;59358;52.134;5.596;2023-04-29T01:27:13;64.43;;;34.47;;
19205;SDS011;59358;52.134;5.596;2023-04-29T01:29:50;63.10;;;33.97;;
19205;SDS011;59358;52.134;5.596;2023-04-29T01:32:22;65.30;;;33.53;;
19205;SDS011;59358;52.134;5.596;2023-04-29T01:35:03;64.72;;;33.45;;
19205;SDS011;59358;52.134;5.596;2023-04-29T01:37:39;64.85;;;32.40;;
19205;SDS011;59358;52.134;5.596;2023-04-29T01:40:15;59.67;;;33.35;;
19205;SDS011;59358;52.134;5.596;2023-04-29T01:42:45;65.18;;;34.90;;
19205;SDS011;59358;52.134;5.596;2023-04-29T01:45:14;64.88;;;33.97;;
19205;SDS011;59358;52.134;5.596;2023-04-29T01:47:43;69.10;;;34.65;;
19205;SDS011;59358;52.134;5.596;2023-04-29T01:50:11;60.30;;;33.25;;
19205;SDS011;59358;52.134;5.596;2023-04-29T01:52:38;63.05;;;34.20;;
19205;SDS011;59358;52.134;5.596;2023-04-29T01:55:05;69.70;;;34.10;;
19205;SDS011;59358;52.134;5.596;2023-04-29T01:57:34;62.30;;;32.55;;
19205;SDS011;59358;52.134;5.596;2023-04-29T02:00:01;65.18;;;34.10;;
19205;SDS011;59358;52.134;5.596;2023-04-29T02:02:28;63.70;;;32.80;;
19205;SDS011;59358;52.134;5.596;2023-04-29T02:04:55;64.25;;;33.85;;
19205;SDS011;59358;52.134;5.596;2023-04-29T02:07:22;60.85;;;32.50;;
19205;SDS011;59358;52.134;5.596;2023-04-29T02:09:49;61.90;;;31.75;;
19205;SDS011;59358;52.134;5.596;2023-04-29T02:12:15;61.67;;;32.33;;
19205;SDS011;59358;52.134;5.596;2023-04-29T02:14:44;56.85;;;31.30;;
19205;SDS011;59358;52.134;5.596;2023-04-29T02:17:11;58.45;;;32.03;;
19205;SDS011;59358;52.134;5.596;2023-04-29T02:19:38;60.90;;;31.27;;
19205;SDS011;59358;52.134;5.596;2023-04-29T02:22:05;54.08;;;30.42;;
19205;SDS011;59358;52.134;5.596;2023-04-29T02:24:32;56.03;;;31.73;;
19205;SDS011;59358;52.134;5.596;2023-04-29T02:26:59;58.63;;;32.58;;
19205;SDS011;59358;52.134;5.596;2023-04-29T02:29:29;54.17;;;30.10;;
19205;SDS011;59358;52.134;5.596;2023-04-29T02:31:57;58.38;;;30.50;;
19205;SDS011;59358;52.134;5.596;2023-04-29T02:34:24;55.13;;;31.13;;
19205;SDS011;59358;52.134;5.596;2023-04-29T02:36:51;49.03;;;28.48;;
19205;SDS011;59358;52.134;5.596;2023-04-29T02:39:17;55.05;;;30.50;;
19205;SDS011;59358;52.134;5.596;2023-04-29T02:41:45;54.75;;;28.95;;
19205;SDS011;59358;52.134;5.596;2023-04-29T02:44:11;50.72;;;29.05;;
19205;SDS011;59358;52.134;5.596;2023-04-29T02:46:38;53.38;;;28.90;;
19205;SDS011;59358;52.134;5.596;2023-04-29T02:49:10;49.22;;;26.73;;
19205;SDS011;59358;52.134;5.596;2023-04-29T02:51:37;44.90;;;25.75;;
19205;SDS011;59358;52.134;5.596;2023-04-29T02:54:05;47.22;;;26.38;;
19205;SDS011;59358;52.134;5.596;2023-04-29T02:56:32;42.28;;;25.25;;
19205;SDS011;59358;52.134;5.596;2023-04-29T02:58:58;49.78;;;26.77;;
19205;SDS011;59358;52.134;5.596;2023-04-29T03:01:25;48.20;;;27.50;;
19205;SDS011;59358;52.134;5.596;2023-04-29T03:03:53;46.22;;;26.30;;
19205;SDS011;59358;52.134;5.596;2023-04-29T03:06:21;46.03;;;25.67;;
19205;SDS011;59358;52.134;5.596;2023-04-29T03:08:48;47.85;;;26.63;;
19205;SDS011;59358;52.134;5.596;2023-04-29T03:11:14;46.70;;;26.13;;
19205;SDS011;59358;52.134;5.596;2023-04-29T03:13:41;42.65;;;24.70;;
19205;SDS011;59358;52.134;5.596;2023-04-29T03:16:10;41.58;;;22.67;;
19205;SDS011;59358;52.134;5.596;2023-04-29T03:18:37;35.63;;;22.85;;
19205;SDS011;59358;52.134;5.596;2023-04-29T03:21:04;40.95;;;22.85;;
19205;SDS011;59358;52.134;5.596;2023-04-29T03:23:33;40.33;;;23.30;;
19205;SDS011;59358;52.134;5.596;2023-04-29T03:25:59;34.85;;;22.15;;
19205;SDS011;59358;52.134;5.596;2023-04-29T03:28:27;41.67;;;23.00;;
19205;SDS011;59358;52.134;5.596;2023-04-29T03:30:53;41.53;;;22.10;;
19205;SDS011;59358;52.134;5.596;2023-04-29T03:33:21;45.65;;;23.55;;
19205;SDS011;59358;52.134;5.596;2023-04-29T03:35:48;41.28;;;23.45;;
19205;SDS011;59358;52.134;5.596;2023-04-29T03:38:14;41.13;;;24.75;;
19205;SDS011;59358;52.134;5.596;2023-04-29T03:40:42;44.10;;;25.33;;
19205;SDS011;59358;52.134;5.596;2023-04-29T03:43:10;45.15;;;25.95;;
19205;SDS011;59358;52.134;5.596;2023-04-29T03:45:38;48.05;;;25.20;;
19205;SDS011;59358;52.134;5.596;2023-04-29T03:48:05;43.20;;;26.02;;
19205;SDS011;59358;52.134;5.596;2023-04-29T03:50:31;39.38;;;24.10;;
19205;SDS011;59358;52.134;5.596;2023-04-29T03:52:58;40.45;;;24.60;;
19205;SDS011;59358;52.134;5.596;2023-04-29T03:55:25;36.58;;;23.80;;
19205;SDS011;59358;52.134;5.596;2023-04-29T03:57:53;41.00;;;25.27;;
19205;SDS011;59358;52.134;5.596;2023-04-29T04:00:20;45.85;;;27.67;;
19205;SDS011;59358;52.134;5.596;2023-04-29T04:02:48;46.70;;;26.55;;
19205;SDS011;59358;52.134;5.596;2023-04-29T04:05:14;46.20;;;27.35;;
19205;SDS011;59358;52.134;5.596;2023-04-29T04:07:43;45.95;;;26.27;;
19205;SDS011;59358;52.134;5.596;2023-04-29T04:10:10;48.28;;;26.90;;
19205;SDS011;59358;52.134;5.596;2023-04-29T04:12:36;47.22;;;27.35;;
19205;SDS011;59358;52.134;5.596;2023-04-29T04:15:05;53.67;;;27.65;;
19205;SDS011;59358;52.134;5.596;2023-04-29T04:17:33;45.42;;;27.20;;
19205;SDS011;59358;52.134;5.596;2023-04-29T04:19:59;46.22;;;27.20;;
19205;SDS011;59358;52.134;5.596;2023-04-29T04:22:26;39.05;;;25.70;;
19205;SDS011;59358;52.134;5.596;2023-04-29T04:24:53;40.10;;;24.23;;
19205;SDS011;59358;52.134;5.596;2023-04-29T04:27:20;40.90;;;24.38;;
19205;SDS011;59358;52.134;5.596;2023-04-29T04:29:47;39.85;;;24.88;;
19205;SDS011;59358;52.134;5.596;2023-04-29T04:32:15;37.50;;;24.15;;
19205;SDS011;59358;52.134;5.596;2023-04-29T04:34:42;38.97;;;23.50;;
19205;SDS011;59358;52.134;5.596;2023-04-29T04:37:09;39.42;;;24.73;;
19205;SDS011;59358;52.134;5.596;2023-04-29T04:39:37;38.75;;;23.60;;
19205;SDS011;59358;52.134;5.596;2023-04-29T04:42:04;45.10;;;25.48;;
19205;SDS011;59358;52.134;5.596;2023-04-29T04:44:31;36.55;;;23.02;;
19205;SDS011;59358;52.134;5.596;2023-04-29T04:46:58;41.10;;;23.75;;
19205;SDS011;59358;52.134;5.596;2023-04-29T04:49:27;38.97;;;23.90;;
19205;SDS011;59358;52.134;5.596;2023-04-29T04:51:54;37.28;;;23.95;;
19205;SDS011;59358;52.134;5.596;2023-04-29T04:54:20;40.55;;;24.38;;
19205;SDS011;59358;52.134;5.596;2023-04-29T04:56:47;39.10;;;23.65;;
19205;SDS011;59358;52.134;5.596;2023-04-29T04:59:16;37.88;;;23.98;;
19205;SDS011;59358;52.134;5.596;2023-04-29T05:01:42;37.95;;;23.80;;
19205;SDS011;59358;52.134;5.596;2023-04-29T05:04:09;41.53;;;23.85;;
19205;SDS011;59358;52.134;5.596;2023-04-29T05:06:37;39.20;;;23.30;;
19205;SDS011;59358;52.134;5.596;2023-04-29T05:09:04;39.08;;;24.02;;
19205;SDS011;59358;52.134;5.596;2023-04-29T05:11:31;42.42;;;24.55;;
19205;SDS011;59358;52.134;5.596;2023-04-29T05:13:58;38.65;;;24.27;;
19205;SDS011;59358;52.134;5.596;2023-04-29T05:16:25;38.88;;;23.15;;
19205;SDS011;59358;52.134;5.596;2023-04-29T05:18:51;42.33;;;24.30;;
19205;SDS011;59358;52.134;5.596;2023-04-29T05:21:18;42.03;;;25.02;;
19205;SDS011;59358;52.134;5.596;2023-04-29T05:23:46;40.63;;;23.48;;
19205;SDS011;59358;52.134;5.596;2023-04-29T05:26:13;36.03;;;24.33;;
19205;SDS011;59358;52.134;5.596;2023-04-29T05:28:40;40.97;;;23.23;;
19205;SDS011;59358;52.134;5.596;2023-04-29T05:31:06;42.35;;;23.38;;
19205;SDS011;59358;52.134;5.596;2023-04-29T05:33:33;40.63;;;23.92;;
19205;SDS011;59358;52.134;5.596;2023-04-29T05:36:00;41.78;;;24.02;;
19205;SDS011;59358;52.134;5.596;2023-04-29T05:38:27;43.67;;;23.50;;
19205;SDS011;59358;52.134;5.596;2023-04-29T05:40:55;37.70;;;23.95;;
19205;SDS011;59358;52.134;5.596;2023-04-29T05:43:22;37.00;;;24.27;;
19205;SDS011;59358;52.134;5.596;2023-04-29T05:45:49;35.80;;;22.30;;
19205;SDS011;59358;52.134;5.596;2023-04-29T05:48:16;41.47;;;23.02;;
19205;SDS011;59358;52.134;5.596;2023-04-29T05:50:42;48.83;;;23.08;;
19205;SDS011;59358;52.134;5.596;2023-04-29T05:53:09;34.55;;;22.50;;
19205;SDS011;59358;52.134;5.596;2023-04-29T05:55:36;34.70;;;22.52;;
19205;SDS011;59358;52.134;5.596;2023-04-29T05:58:06;36.08;;;21.85;;
19205;SDS011;59358;52.134;5.596;2023-04-29T06:00:32;33.28;;;22.05;;
19205;SDS011;59358;52.134;5.596;2023-04-29T06:02:59;34.90;;;22.85;;
19205;SDS011;59358;52.134;5.596;2023-04-29T06:05:26;34.45;;;21.48;;
19205;SDS011;59358;52.134;5.596;2023-04-29T06:07:52;41.10;;;22.85;;
19205;SDS011;59358;52.134;5.596;2023-04-29T06:10:19;33.72;;;19.83;;
19205;SDS011;59358;52.134;5.596;2023-04-29T06:12:46;38.22;;;21.02;;
19205;SDS011;59358;52.134;5.596;2023-04-29T06:15:16;36.70;;;20.08;;
19205;SDS011;59358;52.134;5.596;2023-04-29T06:17:43;32.47;;;18.90;;
19205;SDS011;59358;52.134;5.596;2023-04-29T06:20:10;34.13;;;19.95;;
19205;SDS011;59358;52.134;5.596;2023-04-29T06:22:38;36.75;;;20.48;;
19205;SDS011;59358;52.134;5.596;2023-04-29T06:25:04;34.50;;;19.58;;
19205;SDS011;59358;52.134;5.596;2023-04-29T06:27:31;33.67;;;18.83;;
19205;SDS011;59358;52.134;5.596;2023-04-29T06:29:58;33.70;;;19.40;;
19205;SDS011;59358;52.134;5.596;2023-04-29T06:32:27;35.92;;;20.00;;
19205;SDS011;59358;52.134;5.596;2023-04-29T06:34:53;32.85;;;18.38;;
19205;SDS011;59358;52.134;5.596;2023-04-29T06:37:20;27.25;;;16.80;;
19205;SDS011;59358;52.134;5.596;2023-04-29T06:39:47;29.85;;;17.70;;
19205;SDS011;59358;52.134;5.596;2023-04-29T06:42:14;28.23;;;16.05;;
19205;SDS011;59358;52.134;5.596;2023-04-29T06:44:40;29.40;;;17.85;;
19205;SDS011;59358;52.134;5.596;2023-04-29T06:47:07;28.27;;;17.55;;
19205;SDS011;59358;52.134;5.596;2023-04-29T06:49:36;28.67;;;17.98;;
19205;SDS011;59358;52.134;5.596;2023-04-29T06:52:02;28.00;;;17.55;;
19205;SDS011;59358;52.134;5.596;2023-04-29T06:54:29;33.10;;;17.52;;
19205;SDS011;59358;52.134;5.596;2023-04-29T06:56:56;26.15;;;15.88;;
19205;SDS011;59358;52.134;5.596;2023-04-29T06:59:23;30.58;;;17.88;;
19205;SDS011;59358;52.134;5.596;2023-04-29T07:01:50;28.27;;;16.83;;
19205;SDS011;59358;52.134;5.596;2023-04-29T07:04:16;30.90;;;17.45;;
19205;SDS011;59358;52.134;5.596;2023-04-29T07:06:45;28.73;;;17.10;;
19205;SDS011;59358;52.134;5.596;2023-04-29T07:09:11;27.70;;;16.50;;
19205;SDS011;59358;52.134;5.596;2023-04-29T07:11:39;28.50;;;16.42;;
19205;SDS011;59358;52.134;5.596;2023-04-29T07:14:06;25.58;;;16.20;;
19205;SDS011;59358;52.134;5.596;2023-04-29T07:16:32;29.95;;;17.63;;
19205;SDS011;59358;52.134;5.596;2023-04-29T07:18:59;27.38;;;16.90;;
19205;SDS011;59358;52.134;5.596;2023-04-29T07:21:26;30.65;;;15.85;;
19205;SDS011;59358;52.134;5.596;2023-04-29T07:23:56;24.52;;;16.27;;
19205;SDS011;59358;52.134;5.596;2023-04-29T07:26:25;31.73;;;16.15;;
19205;SDS011;59358;52.134;5.596;2023-04-29T07:28:51;27.80;;;16.10;;
19205;SDS011;59358;52.134;5.596;2023-04-29T07:31:18;29.63;;;15.85;;
19205;SDS011;59358;52.134;5.596;2023-04-29T07:33:45;26.88;;;16.88;;
19205;SDS011;59358;52.134;5.596;2023-04-29T07:36:12;26.25;;;15.00;;
19205;SDS011;59358;52.134;5.596;2023-04-29T07:38:39;29.25;;;15.55;;
19205;SDS011;59358;52.134;5.596;2023-04-29T07:41:08;24.88;;;13.60;;
19205;SDS011;59358;52.134;5.596;2023-04-29T07:43:35;26.35;;;14.43;;
19205;SDS011;59358;52.134;5.596;2023-04-29T07:46:02;28.33;;;14.15;;
19205;SDS011;59358;52.134;5.596;2023-04-29T07:48:28;24.13;;;14.35;;
19205;SDS011;59358;52.134;5.596;2023-04-29T07:50:55;20.77;;;14.65;;
19205;SDS011;59358;52.134;5.596;2023-04-29T07:53:22;21.88;;;13.73;;
19205;SDS011;59358;52.134;5.596;2023-04-29T07:55:49;19.92;;;12.10;;
19205;SDS011;59358;52.134;5.596;2023-04-29T07:58:17;18.98;;;12.35;;
19205;SDS011;59358;52.134;5.596;2023-04-29T08:00:44;22.13;;;13.25;;
19205;SDS011;59358;52.134;5.596;2023-04-29T08:03:11;25.30;;;12.45;;
19205;SDS011;59358;52.134;5.596;2023-04-29T08:05:38;26.20;;;13.32;;
19205;SDS011;59358;52.134;5.596;2023-04-29T08:08:04;16.35;;;11.90;;
19205;SDS011;59358;52.134;5.596;2023-04-29T08:10:31;20.58;;;11.38;;
19205;SDS011;59358;52.134;5.596;2023-04-29T08:12:58;18.02;;;11.95;;
19205;SDS011;59358;52.134;5.596;2023-04-29T08:15:26;20.75;;;12.38;;
19205;SDS011;59358;52.134;5.596;2023-04-29T08:17:53;21.80;;;12.07;;
19205;SDS011;59358;52.134;5.596;2023-04-29T08:20:20;18.48;;;11.25;;
19205;SDS011;59358;52.134;5.596;2023-04-29T08:22:47;16.17;;;10.38;;
19205;SDS011;59358;52.134;5.596;2023-04-29T08:25:14;16.23;;;9.95;;
19205;SDS011;59358;52.134;5.596;2023-04-29T08:27:41;16.27;;;9.80;;
19205;SDS011;59358;52.134;5.596;2023-04-29T08:30:10;14.45;;;9.35;;
19205;SDS011;59358;52.134;5.596;2023-04-29T08:32:38;19.60;;;10.75;;
19205;SDS011;59358;52.134;5.596;2023-04-29T08:35:05;16.30;;;10.65;;
19205;SDS011;59358;52.134;5.596;2023-04-29T08:37:33;19.02;;;11.35;;
19205;SDS011;59358;52.134;5.596;2023-04-29T08:40:00;15.75;;;9.88;;
19205;SDS011;59358;52.134;5.596;2023-04-29T08:42:31;17.65;;;10.20;;
19205;SDS011;59358;52.134;5.596;2023-04-29T08:44:59;17.08;;;10.10;;
19205;SDS011;59358;52.134;5.596;2023-04-29T08:47:26;13.23;;;9.32;;
19205;SDS011;59358;52.134;5.596;2023-04-29T08:49:57;14.40;;;8.48;;
19205;SDS011;59358;52.134;5.596;2023-04-29T08:52:27;12.43;;;9.20;;
19205;SDS011;59358;52.134;5.596;2023-04-29T08:54:54;13.07;;;9.00;;
19205;SDS011;59358;52.134;5.596;2023-04-29T08:57:21;12.25;;;8.73;;
19205;SDS011;59358;52.134;5.596;2023-04-29T08:59:50;16.40;;;9.45;;
19205;SDS011;59358;52.134;5.596;2023-04-29T09:02:17;12.68;;;8.73;;
19205;SDS011;59358;52.134;5.596;2023-04-29T09:04:46;14.55;;;8.80;;
19205;SDS011;59358;52.134;5.596;2023-04-29T09:07:18;12.98;;;8.75;;
19205;SDS011;59358;52.134;5.596;2023-04-29T09:09:45;15.40;;;9.00;;
19205;SDS011;59358;52.134;5.596;2023-04-29T09:12:12;13.90;;;8.15;;
19205;SDS011;59358;52.134;5.596;2023-04-29T09:14:39;17.23;;;9.02;;
19205;SDS011;59358;52.134;5.596;2023-04-29T09:17:05;15.20;;;8.30;;
19205;SDS011;59358;52.134;5.596;2023-04-29T09:19:33;13.10;;;8.55;;
19205;SDS011;59358;52.134;5.596;2023-04-29T09:22:01;11.50;;;8.30;;
19205;SDS011;59358;52.134;5.596;2023-04-29T09:24:30;10.90;;;7.85;;
19205;SDS011;59358;52.134;5.596;2023-04-29T09:26:57;13.93;;;8.85;;
19205;SDS011;59358;52.134;5.596;2023-04-29T09:29:25;15.35;;;8.20;;
19205;SDS011;59358;52.134;5.596;2023-04-29T09:31:53;16.70;;;9.25;;
19205;SDS011;59358;52.134;5.596;2023-04-29T09:34:29;14.60;;;8.95;;
19205;SDS011;59358;52.134;5.596;2023-04-29T09:36:56;15.70;;;8.88;;
19205;SDS011;59358;52.134;5.596;2023-04-29T09:39:24;11.88;;;8.30;;
19205;SDS011;59358;52.134;5.596;2023-04-29T09:41:59;12.73;;;8.52;;
19205;SDS011;59358;52.134;5.596;2023-04-29T09:44:27;10.27;;;7.65;;
19205;SDS011;59358;52.134;5.596;2023-04-29T09:46:56;13.25;;;8.60;;
19205;SDS011;59358;52.134;5.596;2023-04-29T09:49:24;14.55;;;8.70;;
19205;SDS011;59358;52.134;5.596;2023-04-29T09:51:52;12.32;;;7.90;;
19205;SDS011;59358;52.134;5.596;2023-04-29T09:54:21;14.13;;;9.60;;
19205;SDS011;59358;52.134;5.596;2023-04-29T09:56:50;13.90;;;7.82;;
19205;SDS011;59358;52.134;5.596;2023-04-29T09:59:19;10.18;;;7.55;;
19205;SDS011;59358;52.134;5.596;2023-04-29T10:01:47;10.13;;;7.97;;
19205;SDS011;59358;52.134;5.596;2023-04-29T10:04:15;11.82;;;7.85;;
19205;SDS011;59358;52.134;5.596;2023-04-29T10:06:43;9.65;;;7.00;;
19205;SDS011;59358;52.134;5.596;2023-04-29T10:09:12;11.43;;;7.75;;
19205;SDS011;59358;52.134;5.596;2023-04-29T10:11:42;13.93;;;7.82;;
19205;SDS011;59358;52.134;5.596;2023-04-29T10:14:11;9.77;;;7.30;;
19205;SDS011;59358;52.134;5.596;2023-04-29T10:16:45;9.00;;;6.68;;
19205;SDS011;59358;52.134;5.596;2023-04-29T10:19:14;10.90;;;7.03;;
19205;SDS011;59358;52.134;5.596;2023-04-29T10:21:50;12.07;;;6.88;;
19205;SDS011;59358;52.134;5.596;2023-04-29T10:24:20;13.23;;;7.47;;
19205;SDS011;59358;52.134;5.596;2023-04-29T10:26:48;13.68;;;7.45;;
19205;SDS011;59358;52.134;5.596;2023-04-29T10:29:17;12.80;;;8.13;;
19205;SDS011;59358;52.134;5.596;2023-04-29T10:31:45;11.25;;;7.43;;
19205;SDS011;59358;52.134;5.596;2023-04-29T10:34:15;11.88;;;7.20;;
19205;SDS011;59358;52.134;5.596;2023-04-29T10:36:43;10.35;;;7.38;;
19205;SDS011;59358;52.134;5.596;2023-04-29T10:39:11;8.15;;;6.28;;
19205;SDS011;59358;52.134;5.596;2023-04-29T10:41:47;10.82;;;6.88;;
19205;SDS011;59358;52.134;5.596;2023-04-29T10:44:16;9.77;;;6.55;;
19205;SDS011;59358;52.134;5.596;2023-04-29T10:46:42;12.27;;;6.70;;
19205;SDS011;59358;52.134;5.596;2023-04-29T10:49:11;8.73;;;5.80;;
19205;SDS011;59358;52.134;5.596;2023-04-29T10:51:41;9.35;;;7.00;;
19205;SDS011;59358;52.134;5.596;2023-04-29T10:54:09;9.63;;;6.40;;
19205;SDS011;59358;52.134;5.596;2023-04-29T10:56:42;8.75;;;6.63;;
19205;SDS011;59358;52.134;5.596;2023-04-29T10:59:12;10.43;;;6.60;;
19205;SDS011;59358;52.134;5.596;2023-04-29T11:01:42;8.15;;;6.13;;
19205;SDS011;59358;52.134;5.596;2023-04-29T11:04:12;10.10;;;6.20;;
19205;SDS011;59358;52.134;5.596;2023-04-29T11:06:39;11.55;;;6.30;;
19205;SDS011;59358;52.134;5.596;2023-04-29T11:09:09;11.98;;;6.13;;
19205;SDS011;59358;52.134;5.596;2023-04-29T11:11:41;7.90;;;6.20;;
19205;SDS011;59358;52.134;5.596;2023-04-29T11:14:29;9.82;;;6.38;;
19205;SDS011;59358;52.134;5.596;2023-04-29T11:16:57;8.45;;;6.65;;
19205;SDS011;59358;52.134;5.596;2023-04-29T11:19:29;8.20;;;6.10;;
19205;SDS011;59358;52.134;5.596;2023-04-29T11:22:07;8.18;;;6.03;;
19205;SDS011;59358;52.134;5.596;2023-04-29T11:24:50;9.95;;;5.80;;
19205;SDS011;59358;52.134;5.596;2023-04-29T11:27:21;10.75;;;6.82;;
19205;SDS011;59358;52.134;5.596;2023-04-29T11:29:50;9.60;;;6.00;;
19205;SDS011;59358;52.134;5.596;2023-04-29T11:32:22;10.80;;;6.22;;
19205;SDS011;59358;52.134;5.596;2023-04-29T11:34:51;14.85;;;6.38;;
19205;SDS011;59358;52.134;5.596;2023-04-29T11:37:19;8.90;;;6.45;;
19205;SDS011;59358;52.134;5.596;2023-04-29T11:39:46;8.00;;;5.93;;
19205;SDS011;59358;52.134;5.596;2023-04-29T11:42:18;8.77;;;6.32;;
19205;SDS011;59358;52.134;5.596;2023-04-29T11:44:45;8.90;;;5.80;;
19205;SDS011;59358;52.134;5.596;2023-04-29T11:47:12;9.25;;;6.95;;
19205;SDS011;59358;52.134;5.596;2023-04-29T11:49:39;11.32;;;6.63;;
19205;SDS011;59358;52.134;5.596;2023-04-29T11:52:08;21.15;;;7.20;;
19205;SDS011;59358;52.134;5.596;2023-04-29T11:54:35;13.63;;;7.00;;
19205;SDS011;59358;52.134;5.596;2023-04-29T11:57:02;9.80;;;7.40;;
19205;SDS011;59358;52.134;5.596;2023-04-29T11:59:30;10.02;;;6.88;;
19205;SDS011;59358;52.134;5.596;2023-04-29T12:01:57;9.50;;;7.05;;
19205;SDS011;59358;52.134;5.596;2023-04-29T12:04:25;10.43;;;6.00;;
19205;SDS011;59358;52.134;5.596;2023-04-29T12:06:52;9.50;;;5.93;;
19205;SDS011;59358;52.134;5.596;2023-04-29T12:09:20;10.57;;;6.82;;
19205;SDS011;59358;52.134;5.596;2023-04-29T12:11:47;10.85;;;6.93;;
19205;SDS011;59358;52.134;5.596;2023-04-29T12:14:15;11.25;;;8.18;;
19205;SDS011;59358;52.134;5.596;2023-04-29T12:16:43;7.97;;;6.32;;
19205;SDS011;59358;52.134;5.596;2023-04-29T12:19:11;7.82;;;5.90;;
19205;SDS011;59358;52.134;5.596;2023-04-29T12:21:46;10.60;;;6.32;;
19205;SDS011;59358;52.134;5.596;2023-04-29T12:24:14;11.55;;;6.43;;
19205;SDS011;59358;52.134;5.596;2023-04-29T12:26:43;8.82;;;7.22;;
19205;SDS011;59358;52.134;5.596;2023-04-29T12:29:10;8.68;;;6.93;;
19205;SDS011;59358;52.134;5.596;2023-04-29T12:31:38;8.45;;;6.57;;
19205;SDS011;59358;52.134;5.596;2023-04-29T12:34:04;10.63;;;6.60;;
19205;SDS011;59358;52.134;5.596;2023-04-29T12:36:33;14.80;;;7.25;;
19205;SDS011;59358;52.134;5.596;2023-04-29T12:39:01;11.75;;;6.95;;
19205;SDS011;59358;52.134;5.596;2023-04-29T12:41:36;8.88;;;6.47;;
19205;SDS011;59358;52.134;5.596;2023-04-29T12:44:05;11.82;;;7.90;;
19205;SDS011;59358;52.134;5.596;2023-04-29T12:46:35;12.50;;;8.43;;
19205;SDS011;59358;52.134;5.596;2023-04-29T12:49:02;10.98;;;7.15;;
19205;SDS011;59358;52.134;5.596;2023-04-29T12:51:30;10.93;;;7.30;;
19205;SDS011;59358;52.134;5.596;2023-04-29T12:53:57;12.20;;;8.07;;
19205;SDS011;59358;52.134;5.596;2023-04-29T12:56:25;12.23;;;7.63;;
19205;SDS011;59358;52.134;5.596;2023-04-29T12:58:52;10.88;;;6.65;;
19205;SDS011;59358;52.134;5.596;2023-04-29T13:01:20;8.40;;;6.78;;
19205;SDS011;59358;52.134;5.596;2023-04-29T13:03:46;12.55;;;6.85;;
19205;SDS011;59358;52.134;5.596;2023-04-29T13:06:15;10.18;;;6.47;;
19205;SDS011;59358;52.134;5.596;2023-04-29T13:08:42;11.85;;;7.45;;
19205;SDS011;59358;52.134;5.596;2023-04-29T13:11:09;9.25;;;6.38;;
19205;SDS011;59358;52.134;5.596;2023-04-29T13:13:37;14.50;;;6.82;;
19205;SDS011;59358;52.134;5.596;2023-04-29T13:16:04;9.07;;;6.82;;
19205;SDS011;59358;52.134;5.596;2023-04-29T13:18:33;7.82;;;6.35;;
19205;SDS011;59358;52.134;5.596;2023-04-29T13:21:01;9.15;;;5.88;;
19205;SDS011;59358;52.134;5.596;2023-04-29T13:23:27;9.68;;;6.60;;
19205;SDS011;59358;52.134;5.596;2023-04-29T13:25:54;10.73;;;6.30;;
19205;SDS011;59358;52.134;5.596;2023-04-29T13:28:21;11.48;;;7.15;;
19205;SDS011;59358;52.134;5.596;2023-04-29T13:30:48;11.07;;;5.88;;
19205;SDS011;59358;52.134;5.596;2023-04-29T13:33:16;8.40;;;5.93;;
19205;SDS011;59358;52.134;5.596;2023-04-29T13:35:44;8.85;;;6.05;;
19205;SDS011;59358;52.134;5.596;2023-04-29T13:38:13;10.02;;;6.47;;
19205;SDS011;59358;52.134;5.596;2023-04-29T13:40:40;12.23;;;7.22;;
19205;SDS011;59358;52.134;5.596;2023-04-29T13:43:06;9.30;;;6.85;;
19205;SDS011;59358;52.134;5.596;2023-04-29T13:45:33;8.93;;;6.15;;
19205;SDS011;59358;52.134;5.596;2023-04-29T13:48:00;9.15;;;6.00;;
19205;SDS011;59358;52.134;5.596;2023-04-29T13:50:27;10.80;;;6.75;;
19205;SDS011;59358;52.134;5.596;2023-04-29T13:52:55;10.40;;;7.07;;
19205;SDS011;59358;52.134;5.596;2023-04-29T13:55:22;10.55;;;6.72;;
19205;SDS011;59358;52.134;5.596;2023-04-29T13:57:49;10.90;;;6.72;;
19205;SDS011;59358;52.134;5.596;2023-04-29T14:00:17;9.13;;;6.15;;
19205;SDS011;59358;52.134;5.596;2023-04-29T14:02:44;9.95;;;6.18;;
19205;SDS011;59358;52.134;5.596;2023-04-29T14:05:11;7.90;;;6.28;;
19205;SDS011;59358;52.134;5.596;2023-04-29T14:07:38;9.60;;;6.25;;
19205;SDS011;59358;52.134;5.596;2023-04-29T14:10:06;10.05;;;6.78;;
19205;SDS011;59358;52.134;5.596;2023-04-29T14:12:33;9.30;;;6.85;;
19205;SDS011;59358;52.134;5.596;2023-04-29T14:15:00;14.07;;;7.30;;
19205;SDS011;59358;52.134;5.596;2023-04-29T14:17:27;13.27;;;7.45;;
19205;SDS011;59358;52.134;5.596;2023-04-29T14:19:53;13.48;;;8.07;;
19205;SDS011;59358;52.134;5.596;2023-04-29T14:22:20;10.02;;;7.55;;
19205;SDS011;59358;52.134;5.596;2023-04-29T14:24:47;14.57;;;7.45;;
19205;SDS011;59358;52.134;5.596;2023-04-29T14:27:15;13.15;;;7.32;;
19205;SDS011;59358;52.134;5.596;2023-04-29T14:29:42;8.60;;;7.10;;
19205;SDS011;59358;52.134;5.596;2023-04-29T14:32:08;10.65;;;7.43;;